Tiempo atmosférico en la estación meteorológica de La Roda de Andalucía, Sevilla (410 m.)



Fecha
DESCASC
Temp. máxima en grados centígrados (hora)
DESCASC
Temp. mínima en grados centígrados (hora)
DESCASC
Temp. media en grados centígrados
DESCASC
Racha de viento máxima en m/sg (hora)
DESCASC
Velocidad máxima media en intervalos de 10 minutos(hora)
DESCASC
Precipitaciones diarias en mm
DESCASC
Precipitaciones de 00:00 a 06:00 en mm
DESCASC
Precipitaciones de 06:00 a 12:00 en mm
DESCASC
Precipitaciones de 12:00 a 18:00 en mm
DESCASC
Precipitaciones de 18:00 a 24:00 en mm
DESCASC
20-09-2020 27.4 (16:30) 11.2 (07:50) 19.3 7.22 (15:30) 4.17 (17:10) 0.2 0.2 0 0 0
19-09-2020 25.1 (12:50) 15.7 (05:20) 20.4 11.11 (14:40) 6.39 (14:50) 1.6 0 0 1 0.6
17-09-2020 31.1 (14:50) 21.4 (00:00) 26.3 15.28 (20:00) 7.78 (20:00) 0 0 0 0 0
16-09-2020 31.9 (16:20) 16.2 (06:40) 24.1 11.11 (14:10) 5.83 (14:40) 0 0 0 0 0
15-09-2020 31.9 (16:10) 14.8 (00:00) 23.3 8.89 (16:10) 4.72 (16:20) 0 0 0 0 0
14-09-2020 30.8 (14:00) 21.4 (00:00) 26.1 13.61 (13:10) 7.78 (12:30) 0 0 0 0 0
13-09-2020 31.9 (15:20) 21.2 (07:30) 26.6 12.78 (13:40) 7.5 (13:20) 0 0 0 0 0
12-09-2020 34.4 (16:20) 19.2 (06:10) 26.8 11.67 (16:30) 6.39 (18:00) 0 0 0 0 0
11-09-2020 33.9 (16:20) 18.5 (08:20) 26.2 10 (15:20) 5 (15:20) 0 0 0 0 0

Gráficas

Temp. máximas Temp. mínimas Temp. medias Precipitaciones Rachas de viento máximas Velocidades máximas media en intervalos de 10 minutos

Datos horarios

Fecha y hora oficial Temperatura (ºC) Velocidad del viento (km/h) Dirección del viento Racha (km/h) Dirección de racha Precipitación (mm) Presión (hPa) Tendencia (hPa) Humedad (%)
2020-09-22 23:00:00 21.8 5 Oeste 20 Oeste 0 968.2 -- 47
2020-09-22 22:00:00 22.8 15 Oeste 27 Oeste 0 967.8 -- 44
2020-09-22 21:00:00 24.3 7 Oeste 22 Oeste 0 967.1 -- 32
2020-09-22 20:00:00 26 -- -- -- -- 0 966.5 -- 30
2020-09-22 19:00:00 28.2 15 Noroeste 25 Noroeste 0 966.3 -- 22
2020-09-22 18:00:00 30 12 Oeste 23 Oeste 0 966.5 -- 20
2020-09-22 17:00:00 29.5 11 Noroeste 22 Oeste 0 966.7 -- 23
2020-09-22 16:00:00 30.2 9 Noroeste 18 Noroeste 0 967.4 -- 21
2020-09-22 15:00:00 29.3 4 Nordeste 17 Norte 0 968 -- 26
2020-09-22 14:00:00 28.1 3 Sur 16 Noroeste 0 968.7 -- 31
2020-09-22 13:00:00 26 7 Nordeste 15 Noroeste 0 968.8 -- 37
2020-09-22 12:00:00 25 6 Noroeste 10 Noroeste 0 969.4 -- 40
2020-09-22 11:00:00 22.1 4 Norte 8 Noroeste 0 968.9 -- 49
2020-09-22 10:00:00 18.4 -- -- -- -- 0 968.6 -- 59
2020-09-22 09:00:00 14 5 Sudoeste 8 Sur 0 968.4 -- 76
2020-09-22 08:00:00 13 4 Sur 8 Sur 0 968.1 -- 75
2020-09-22 07:00:00 13.7 5 Sur 8 Sur 0 968 -- 70
2020-09-22 06:00:00 15.4 3 Sudoeste 12 Sur 0 968 -- 67
2020-09-22 05:00:00 16.3 7 Sur 12 Sur 0 968.2 -- 65
2020-09-22 04:00:00 17.3 7 Sur 10 Sur 0 968.6 -- 64
2020-09-22 03:00:00 17.4 3 Sudoeste 11 Sudoeste 0 969 -- 65
2020-09-22 02:00:00 17.7 3 Noroeste 16 Oeste 0 969.4 -- 62
2020-09-22 01:00:00 18.7 7 Oeste 14 Sudoeste 0 969.5 -- 59
2020-09-22 00:00:00 17.4 7 Sur 9 Sur 0 969.8 -- 53
2020-09-21 23:00:00 18.5 4 Sur 8 Sur 0 969.5 -- 49
2020-09-21 22:00:00 19.4 5 Sur 8 Sur 0 969.2 -- 44
2020-09-21 21:00:00 22.4 3 Sur 10 Norte 0 968.8 -- 37
2020-09-21 20:00:00 25.7 9 Norte -- -- 0 968.9 -- 30
2020-09-21 19:00:00 27.3 11 Norte 23 Norte 0 968.7 -- 29
2020-09-21 18:00:00 27.8 14 Norte 24 Norte 0 968.7 -- 30
2020-09-21 17:00:00 27.8 10 Norte 19 Norte 0 969 -- 30
2020-09-21 16:00:00 27.8 9 Noroeste 22 Norte 0 969.4 -- 26
2020-09-21 15:00:00 26.9 10 Norte 20 Norte 0 969.9 -- 35
2020-09-21 14:00:00 25.8 9 Norte 19 Norte 0 970.3 -- 42
2020-09-21 13:00:00 24.7 7 Norte 17 Noroeste 0 970.8 -- 48
2020-09-21 12:00:00 22.4 7 Norte 13 Norte 0 971 -- 58
2020-09-21 11:00:00 20.6 3 Norte 6 Norte 0 970.8 -- 65
2020-09-21 10:00:00 18.8 2 Nordeste 5 Norte 0 970.4 -- 73
2020-09-21 09:00:00 16.4 -- -- -- -- 0 970.3 -- 83
2020-09-21 08:00:00 15.5 5 Sur 7 Sur 0 970 -- 83
2020-09-21 07:00:00 15.3 2 Sudoeste 6 Sur 0 969.5 -- 81
2020-09-21 06:00:00 15.4 4 Sur 8 Sur 0 969.5 -- 81
2020-09-21 05:00:00 15.5 6 Sur 10 Sur 0 969.7 -- 82
2020-09-21 04:00:00 15.9 3 Sudeste 5 Sudoeste 0 969.9 -- 79
2020-09-21 03:00:00 17 2 Sur 6 Sudoeste 0 970.4 -- 77
2020-09-21 02:00:00 18.1 4 Oeste 12 Oeste 0 970.5 -- 74
2020-09-21 01:00:00 18.4 8 Oeste 15 Oeste 0 970.8 -- 73
2020-09-21 00:00:00 17.6 5 Oeste 9 Sudoeste 0 971 -- 69
2020-09-20 23:00:00 18.4 2 Noroeste 10 Sudoeste 0 971 -- 66
2020-09-20 22:00:00 19 3 Sudoeste 8 Sudoeste 0 970.8 -- 64
2020-09-20 21:00:00 20.7 4 Sudoeste 9 Oeste 0 970.3 -- 56
2020-09-20 20:00:00 23.1 6 Oeste 22 Oeste 0 970.3 -- 48
2020-09-20 19:00:00 24.9 12 Oeste 23 Oeste 0 970.1 -- 43
2020-09-20 18:00:00 26.1 12 Oeste 24 Norte 0 969.9 -- 38
2020-09-20 17:00:00 26.6 14 Noroeste 26 Oeste 0 969.9 -- 36
2020-09-20 16:00:00 26.9 13 Oeste 26 Noroeste 0 970.4 -- 38
2020-09-20 15:00:00 26.3 7 Noroeste 17 Oeste 0 970.8 -- 39
2020-09-20 14:00:00 24.7 5 Norte 15 Noroeste 0 971.4 -- 49
2020-09-20 13:00:00 23.1 5 Norte 12 Noroeste 0 971.9 -- 54
2020-09-20 12:00:00 21.4 4 Norte 11 Noroeste 0 972 -- 61
2020-09-20 11:00:00 18.8 4 Norte 8 Norte 0 971.9 -- 69
2020-09-20 10:00:00 15.6 0 Calma 6 Sur 0 972 -- 91
2020-09-20 09:00:00 12.1 3 Sur 5 Sur 0 971.7 -- 91
2020-09-20 08:00:00 11.3 3 Sudoeste 8 Sur 0 971.3 -- 91
2020-09-20 07:00:00 11.7 6 Sur 10 Sur 0 971.2 -- 90
2020-09-20 06:00:00 12 3 Sur 8 Sur 0 971.1 -- 90
2020-09-20 05:00:00 12.7 5 Sur 10 Sur 0.2 971.1 -- 90
2020-09-20 04:00:00 12.2 2 Sudeste 8 Sur 0 971.8 -- 90
2020-09-20 03:00:00 13 2 Sudoeste 10 Sur 0 972 -- 90
2020-09-20 02:00:00 13.6 4 Sur 8 Sur 0 972.2 -- 89
2020-09-20 01:00:00 14.9 4 Sur 9 Oeste 0 972.1 -- 88
2020-09-20 00:00:00 15.8 6 Sudoeste 13 Noroeste 0 972 -- 89
2020-09-19 23:00:00 16.3 5 Oeste 10 Sur 0 971.8 -- 88
2020-09-19 22:00:00 16.8 5 Sur 9 Sur 0 971.2 -- 87
2020-09-19 21:00:00 18.4 4 Sur 7 Sur 0.4 970.5 -- 84
2020-09-19 20:00:00 20.9 0 Calma 8 Noroeste 0.2 970.4 -- 77
2020-09-19 19:00:00 21.5 5 Noroeste 10 Norte 0 970.2 -- 76
2020-09-19 18:00:00 20.5 5 Noroeste 14 Noroeste 0.2 970.1 -- 81
2020-09-19 17:00:00 19.8 8 Oeste 21 Sudoeste 0.2 970.4 -- 85
2020-09-19 16:00:00 19.8 8 Oeste 26 Noroeste 0.6 970.4 -- 84
2020-09-19 15:00:00 20.6 18 Oeste 40 Noroeste 0 970.8 -- 78
2020-09-19 14:00:00 23.4 14 Noroeste 24 Noroeste 0 970.7 -- 55
2020-09-19 13:00:00 23.6 12 Noroeste 22 Oeste 0 970.8 -- 48
2020-09-19 12:00:00 24.3 9 Sudoeste 20 Sudoeste 0 970.7 -- 43
2020-09-19 11:00:00 22.1 7 Sudoeste 15 Sur 0 970.7 -- 49
2020-09-19 10:00:00 19.3 10 Sur 16 Sur 0 970.5 -- 62
2020-09-19 09:00:00 16.7 6 Sur 12 Sur 0 970.1 -- 73
2020-09-19 08:00:00 16.6 4 Sur 7 Sur 0 969.6 -- 73
2020-09-19 07:00:00 15.8 5 Sur 12 Sudoeste 0 969.4 -- 75
2020-09-19 06:00:00 16.2 7 Sudoeste 13 Sudoeste 0 969.2 -- 73
2020-09-19 05:00:00 16 6 Sur 9 Sudeste 0 969.1 -- 72
2020-09-19 04:00:00 17.3 4 Sur 9 Oeste 0 969.2 -- 66
2020-09-19 03:00:00 19.1 6 Sudoeste 12 Sudoeste 0 969.2 -- 62
2020-09-19 02:00:00 18.5 5 Sudoeste 10 Sudoeste 0 969.3 -- 65
2020-09-19 01:00:00 18.6 6 Sudoeste 12 Sur 0 969.3 -- 66
2020-09-19 00:00:00 18.3 6 Sur 10 Sudoeste 0 969.2 -- 67
2020-09-18 23:00:00 20.4 5 Sudoeste 12 Sudoeste 0 969.2 -- 62
2020-09-18 22:00:00 21.2 8 Sudoeste 28 Sur 0 968.4 -- 57
2020-09-18 21:00:00 21.8 14 Sur 26 Sur 0 967.3 -- 55
2020-09-18 20:00:00 22.5 14 Sur 35 Sur 0 966.5 -- 56
2020-09-18 19:00:00 23.9 18 Sur 39 Sur 0 965.9 -- 50
2020-09-18 18:00:00 25.8 20 Sur 42 Sur 0 965.7 -- 43
2020-09-18 17:00:00 25.1 22 Sur 51 Sur 0 965.8 -- 52
2020-09-18 16:00:00 23.6 26 Sur 58 Sudeste 0 965.7 -- 56
2020-09-18 15:00:00 25 26 Sur 49 Sur 0 965.7 -- 50
2020-09-18 14:00:00 26.6 29 Sur 49 Sur 0 965.2 -- 46
2020-09-18 13:00:00 25.6 26 Sur 46 Sur 0 965.4 -- 51
2020-09-18 12:00:00 24.9 23 Sur 46 Sur 0 965.9 -- 53
2020-09-18 11:00:00 21.5 18 Sur 41 Sur 0 965.3 -- 68
2020-09-18 10:00:00 20 21 Sur -- -- 0 964.8 -- 73
2020-09-18 09:00:00 19.4 16 Sur 29 Sudeste 0 964.6 -- 77
2020-09-18 08:00:00 19.3 10 Sur 19 Sur 0 964.7 -- 75
2020-09-18 07:00:00 19.2 10 Sur 23 Sur 0 964.6 -- 76
2020-09-18 06:00:00 19.3 14 Sur 33 Sur 0 964.7 -- 74
2020-09-18 05:00:00 20.1 13 Sur 48 Sudeste 0 965.3 -- 68
2020-09-18 04:00:00 20.3 20 Sur 42 Sudeste 0 965.4 -- 66
2020-09-18 03:00:00 21 21 Sudeste 52 Sur 0 965.7 -- 63
2020-09-18 02:00:00 21.7 19 Sur 36 Sur 0 966.3 -- 59
2020-09-18 01:00:00 22.1 17 Sur 36 Sudeste 0 966.5 -- 56
2020-09-18 00:00:00 22.1 19 Sur 35 Sur 0 966.7 -- 55
2020-09-17 23:00:00 22.4 18 Sur 41 Sur 0 966.3 -- 55
2020-09-17 22:00:00 22.6 19 Sur 41 Sur 0 966.1 -- 58
2020-09-17 21:00:00 23.2 24 Sur 51 Sudeste 0 965.4 -- 56
2020-09-17 20:00:00 24.4 28 Sur 55 Sur 0 965 -- 53
2020-09-17 19:00:00 26.2 22 Sur 50 Sur 0 964.8 -- 47
2020-09-17 18:00:00 27.6 19 Sur 43 Sur 0 964.5 -- 42
2020-09-17 17:00:00 28.7 23 Sur 42 Sur 0 964.6 -- 38
2020-09-17 16:00:00 29.1 19 Sur 40 Sur 0 965 -- 37
2020-09-17 15:00:00 30.5 20 Sur 37 Sur 0 965.5 -- 34
2020-09-17 14:00:00 28.3 21 Sur 40 Sur 0 966.3 -- 43
2020-09-17 13:00:00 28.1 23 Sur 39 Sur 0 966.8 -- 43
2020-09-17 12:00:00 26.2 18 Sur 36 Sudeste 0 967.1 -- 51
2020-09-17 11:00:00 23.8 17 Sur 36 Sudeste 0 966.9 -- 63
2020-09-17 10:00:00 23.1 21 Sur 39 Sudeste 0 966.5 -- 65
2020-09-17 09:00:00 22.4 14 Sur 28 Sur 0 966.6 -- 66
2020-09-17 08:00:00 22.1 12 Sur 30 Sudeste 0 966.4 -- 66
2020-09-17 07:00:00 21.8 14 Sur 31 Sudeste 0 966.2 -- 70
2020-09-17 06:00:00 21.7 15 Sudeste 29 Sudeste 0 966.2 -- 70
2020-09-17 05:00:00 21.5 17 Sur 33 Sudeste 0 966.4 -- 74
2020-09-17 04:00:00 21.8 14 Sur 35 Sur 0 967.2 -- 70
2020-09-17 03:00:00 21.9 12 Sur 26 Sur 0 967.6 -- 70
2020-09-17 02:00:00 22 11 Sur 28 Sudoeste 0 967.7 -- 65
2020-09-17 01:00:00 22.3 8 Sudoeste 16 Sur 0 968.2 -- 62
2020-09-17 00:00:00 22.6 6 Sur 30 Sudeste 0 968.2 -- 63
2020-09-16 23:00:00 22.9 11 Sudeste 19 Sudeste 0 968.9 -- 61
2020-09-16 22:00:00 23.7 10 Sur 26 Sudoeste 0 969.2 -- 58
2020-09-16 21:00:00 24.9 12 Sur 29 Sur 0 968.4 -- 42
2020-09-16 20:00:00 26.4 15 Sur 29 Sur 0 967.8 -- 30
2020-09-16 19:00:00 27.4 18 Sur 34 Sudeste 0 967.5 -- 25
2020-09-16 18:00:00 29.2 19 Sur 36 Sur 0 967.4 -- 18
2020-09-16 17:00:00 30.6 18 Sur 36 Sur 0 967.3 -- 21
2020-09-16 16:00:00 31.1 15 Sur 37 Sur 0 967.9 -- 20
2020-09-16 15:00:00 29.4 18 Sur 40 Sur 0 968.7 -- 25
2020-09-16 14:00:00 29.6 20 Sur 36 Sur 0 969.7 -- 29
2020-09-16 13:00:00 28.4 15 Sur 30 Sudeste 0 970.1 -- 33
2020-09-16 12:00:00 28 15 Sur 30 Sur 0 970.4 -- 35
2020-09-16 11:00:00 24.7 8 Sur 21 Sur 0 970.6 -- 47
2020-09-16 10:00:00 22.1 9 Sur 18 Sur 0 970.7 -- 55
2020-09-16 09:00:00 17.2 8 Sur 15 Sur 0 970.7 -- 70
2020-09-16 08:00:00 16.3 9 Sur 15 Sur 0 970.7 -- 70
2020-09-16 07:00:00 16.2 7 Sur 10 Sur 0 970.8 -- 70
2020-09-16 06:00:00 16.5 7 Sur 9 Sur 0 971.2 -- 65
2020-09-16 05:00:00 17.5 8 Sur 11 Sur 0 971.5 -- 63
2020-09-16 04:00:00 18.7 8 Sur 12 Sur 0 971.9 -- 60
2020-09-16 03:00:00 19.2 9 Sur 14 Sudoeste 0 972.1 -- 59
2020-09-16 02:00:00 19.9 7 Sur 15 Sudoeste 0 972.3 -- 53
2020-09-16 01:00:00 20.4 8 Sur 14 Sur 0 972.4 -- 53
2020-09-16 00:00:00 21.8 10 Sur 17 Sudoeste 0 972.1 -- 48
2020-09-15 23:00:00 22.6 12 Sur 19 Sur 0 972 -- 42
2020-09-15 22:00:00 23.8 10 Sur 19 Sudoeste 0 971.5 -- 37
2020-09-15 21:00:00 25.6 11 Sudoeste 19 Sudoeste 0 971.1 -- 33
2020-09-15 20:00:00 28.3 10 Sur 21 Sudeste 0 970.7 -- 31
2020-09-15 19:00:00 30.8 8 Sur 26 Sur 0 970.7 -- 26
2020-09-15 18:00:00 31.2 13 Sur 29 Sudoeste 0 971 -- 26
2020-09-15 17:00:00 31.3 14 Sur 32 Sudoeste 0 971.2 -- 28
2020-09-15 16:00:00 31.8 15 Sudoeste 32 Sur 0 971.9 -- 28
2020-09-15 15:00:00 30.7 13 Sur 30 Sur 0 972.5 -- 32
2020-09-15 14:00:00 29.8 13 Sur 27 Sur 0 973.1 -- 38
2020-09-15 13:00:00 28.3 10 Sudeste 22 Sudoeste 0 973.8 -- 44
2020-09-15 12:00:00 25 6 Norte 12 Nordeste 0 974.3 -- 53
2020-09-15 11:00:00 23 5 Norte 12 Norte 0 974.2 -- 63
2020-09-15 10:00:00 20.1 4 Norte 7 Norte 0 973.8 -- 76
2020-09-15 09:00:00 15.6 2 Sudoeste 7 Sur 0 973.6 -- 83
2020-09-15 08:00:00 15 5 Sur 7 Sur 0 973.1 -- 82
2020-09-15 07:00:00 16.3 2 Sur 5 Nordeste 0 972.9 -- 80
2020-09-15 06:00:00 17.7 5 Sur 7 Sur 0 972.9 -- 77
2020-09-15 05:00:00 19.3 4 Sur 24 Sur 0 973 -- 73
2020-09-15 04:00:00 18.3 9 Sur 12 Sur 0 973.4 -- 73
2020-09-15 03:00:00 20.1 4 Oeste 14 Sudoeste 0 973.4 -- 68
2020-09-15 02:00:00 20.8 8 Oeste 24 Sudoeste 0 973.7 1.2 65
2020-09-15 01:00:00 21.6 10 Sudoeste 23 Sur 0 973.4 -- 59